sensor_id;sensor_type;location;lat;lon;timestamp;temperature;humidity
31575;DHT22;18182;1.328;103.810;2023-04-01T00:00:06;28.20;99.90
31575;DHT22;18182;1.328;103.810;2023-04-01T00:02:32;28.20;99.90
31575;DHT22;18182;1.328;103.810;2023-04-01T00:04:58;28.20;99.90
31575;DHT22;18182;1.328;103.810;2023-04-01T00:07:24;28.20;99.90
31575;DHT22;18182;1.328;103.810;2023-04-01T00:09:51;28.20;99.90
31575;DHT22;18182;1.328;103.810;2023-04-01T00:12:17;28.20;99.90
31575;DHT22;18182;1.328;103.810;2023-04-01T00:14:43;28.20;99.90
31575;DHT22;18182;1.328;103.810;2023-04-01T00:17:10;28.30;99.90
31575;DHT22;18182;1.328;103.810;2023-04-01T00:19:36;28.30;99.90
31575;DHT22;18182;1.328;103.810;2023-04-01T00:22:02;28.30;99.90
31575;DHT22;18182;1.328;103.810;2023-04-01T00:24:28;28.40;99.90
31575;DHT22;18182;1.328;103.810;2023-04-01T00:26:55;28.40;99.90
31575;DHT22;18182;1.328;103.810;2023-04-01T00:29:21;28.40;99.90
31575;DHT22;18182;1.328;103.810;2023-04-01T00:31:50;28.40;99.90
31575;DHT22;18182;1.328;103.810;2023-04-01T00:34:17;28.50;99.90
31575;DHT22;18182;1.328;103.810;2023-04-01T00:36:43;28.60;99.90
31575;DHT22;18182;1.328;103.810;2023-04-01T00:39:09;28.60;99.90
31575;DHT22;18182;1.328;103.810;2023-04-01T00:41:35;28.60;99.90
31575;DHT22;18182;1.328;103.810;2023-04-01T00:44:16;28.60;99.90
31575;DHT22;18182;1.328;103.810;2023-04-01T00:46:43;28.60;99.90
31575;DHT22;18182;1.328;103.810;2023-04-01T00:49:09;28.60;99.90
31575;DHT22;18182;1.328;103.810;2023-04-01T00:51:36;28.50;99.90
31575;DHT22;18182;1.328;103.810;2023-04-01T00:54:03;28.50;99.90
31575;DHT22;18182;1.328;103.810;2023-04-01T00:56:32;28.50;99.90
31575;DHT22;18182;1.328;103.810;2023-04-01T00:59:05;28.50;99.90
31575;DHT22;18182;1.328;103.810;2023-04-01T01:01:34;28.50;99.90
31575;DHT22;18182;1.328;103.810;2023-04-01T01:04:01;28.50;99.90
31575;DHT22;18182;1.328;103.810;2023-04-01T01:11:31;28.60;99.90
31575;DHT22;18182;1.328;103.810;2023-04-01T01:14:01;28.50;99.90
31575;DHT22;18182;1.328;103.810;2023-04-01T01:16:30;28.50;99.90
31575;DHT22;18182;1.328;103.810;2023-04-01T01:31:54;28.80;99.90
31575;DHT22;18182;1.328;103.810;2023-04-01T01:36:58;28.80;99.90
31575;DHT22;18182;1.328;103.810;2023-04-01T01:39:26;28.90;99.90
31575;DHT22;18182;1.328;103.810;2023-04-01T01:41:57;28.90;99.90
31575;DHT22;18182;1.328;103.810;2023-04-01T01:44:25;28.90;99.90
31575;DHT22;18182;1.328;103.810;2023-04-01T01:46:53;28.90;99.90
31575;DHT22;18182;1.328;103.810;2023-04-01T01:49:19;28.90;99.90
31575;DHT22;18182;1.328;103.810;2023-04-01T01:51:45;28.90;99.90
31575;DHT22;18182;1.328;103.810;2023-04-01T01:54:12;28.90;99.90
31575;DHT22;18182;1.328;103.810;2023-04-01T01:56:39;28.90;99.90
31575;DHT22;18182;1.328;103.810;2023-04-01T01:59:08;28.90;99.90
31575;DHT22;18182;1.328;103.810;2023-04-01T02:01:37;28.90;99.90
31575;DHT22;18182;1.328;103.810;2023-04-01T02:04:06;28.90;99.90
31575;DHT22;18182;1.328;103.810;2023-04-01T02:06:32;28.90;99.90
31575;DHT22;18182;1.328;103.810;2023-04-01T02:09:01;28.90;99.90
31575;DHT22;18182;1.328;103.810;2023-04-01T02:11:36;28.90;99.90
31575;DHT22;18182;1.328;103.810;2023-04-01T02:14:10;28.90;99.90
31575;DHT22;18182;1.328;103.810;2023-04-01T02:16:44;28.90;99.90
31575;DHT22;18182;1.328;103.810;2023-04-01T02:19:11;29.00;99.90
31575;DHT22;18182;1.328;103.810;2023-04-01T02:21:37;28.90;99.90
31575;DHT22;18182;1.328;103.810;2023-04-01T02:24:06;28.90;99.90
31575;DHT22;18182;1.328;103.810;2023-04-01T02:26:33;28.90;99.90
31575;DHT22;18182;1.328;103.810;2023-04-01T02:29:00;28.90;99.90
31575;DHT22;18182;1.328;103.810;2023-04-01T02:31:27;28.90;99.90
31575;DHT22;18182;1.328;103.810;2023-04-01T02:33:54;29.00;99.90
31575;DHT22;18182;1.328;103.810;2023-04-01T02:36:20;29.00;99.90
31575;DHT22;18182;1.328;103.810;2023-04-01T02:38:46;29.00;99.90
31575;DHT22;18182;1.328;103.810;2023-04-01T02:41:16;29.00;99.90
31575;DHT22;18182;1.328;103.810;2023-04-01T02:43:42;29.10;99.90
31575;DHT22;18182;1.328;103.810;2023-04-01T02:46:08;29.10;99.90
31575;DHT22;18182;1.328;103.810;2023-04-01T02:48:35;29.20;99.90
31575;DHT22;18182;1.328;103.810;2023-04-01T02:51:01;29.30;99.90
31575;DHT22;18182;1.328;103.810;2023-04-01T02:53:27;29.30;99.90
31575;DHT22;18182;1.328;103.810;2023-04-01T02:55:53;29.40;99.90
31575;DHT22;18182;1.328;103.810;2023-04-01T02:58:19;29.60;99.90
31575;DHT22;18182;1.328;103.810;2023-04-01T03:00:45;29.80;99.90
31575;DHT22;18182;1.328;103.810;2023-04-01T03:03:11;29.90;99.90
31575;DHT22;18182;1.328;103.810;2023-04-01T03:05:39;30.00;99.90
31575;DHT22;18182;1.328;103.810;2023-04-01T03:08:05;30.20;99.90
31575;DHT22;18182;1.328;103.810;2023-04-01T03:10:31;30.30;99.90
31575;DHT22;18182;1.328;103.810;2023-04-01T03:12:58;30.40;99.90
31575;DHT22;18182;1.328;103.810;2023-04-01T03:15:24;30.40;99.90
31575;DHT22;18182;1.328;103.810;2023-04-01T03:17:50;30.50;99.90
31575;DHT22;18182;1.328;103.810;2023-04-01T03:20:17;30.40;99.90
31575;DHT22;18182;1.328;103.810;2023-04-01T03:22:43;30.50;99.90
31575;DHT22;18182;1.328;103.810;2023-04-01T03:25:09;30.50;99.90
31575;DHT22;18182;1.328;103.810;2023-04-01T03:27:36;30.50;99.90
31575;DHT22;18182;1.328;103.810;2023-04-01T03:30:03;30.60;99.90
31575;DHT22;18182;1.328;103.810;2023-04-01T03:32:29;30.60;99.90
31575;DHT22;18182;1.328;103.810;2023-04-01T03:34:56;30.60;99.90
31575;DHT22;18182;1.328;103.810;2023-04-01T03:37:22;30.60;99.90
31575;DHT22;18182;1.328;103.810;2023-04-01T03:39:49;30.60;99.90
31575;DHT22;18182;1.328;103.810;2023-04-01T03:42:15;30.70;99.90
31575;DHT22;18182;1.328;103.810;2023-04-01T03:44:41;30.80;99.90
31575;DHT22;18182;1.328;103.810;2023-04-01T03:47:08;30.80;99.90
31575;DHT22;18182;1.328;103.810;2023-04-01T03:49:35;30.80;99.90
31575;DHT22;18182;1.328;103.810;2023-04-01T03:52:01;30.90;99.90
31575;DHT22;18182;1.328;103.810;2023-04-01T03:54:27;31.10;99.90
31575;DHT22;18182;1.328;103.810;2023-04-01T03:56:53;31.10;99.90
31575;DHT22;18182;1.328;103.810;2023-04-01T03:59:20;31.20;99.90
31575;DHT22;18182;1.328;103.810;2023-04-01T04:01:46;31.30;99.90
31575;DHT22;18182;1.328;103.810;2023-04-01T04:04:13;31.30;99.90
31575;DHT22;18182;1.328;103.810;2023-04-01T04:06:40;31.30;99.90
31575;DHT22;18182;1.328;103.810;2023-04-01T04:09:06;31.20;99.90
31575;DHT22;18182;1.328;103.810;2023-04-01T04:11:32;31.10;99.90
31575;DHT22;18182;1.328;103.810;2023-04-01T04:13:58;31.10;99.90
31575;DHT22;18182;1.328;103.810;2023-04-01T04:16:25;31.10;99.90
31575;DHT22;18182;1.328;103.810;2023-04-01T04:18:51;31.10;99.90
31575;DHT22;18182;1.328;103.810;2023-04-01T04:21:17;31.30;99.90
31575;DHT22;18182;1.328;103.810;2023-04-01T04:23:43;31.40;99.90
31575;DHT22;18182;1.328;103.810;2023-04-01T04:26:10;31.60;99.90
31575;DHT22;18182;1.328;103.810;2023-04-01T04:28:37;31.60;99.90
31575;DHT22;18182;1.328;103.810;2023-04-01T04:31:03;31.50;99.90
31575;DHT22;18182;1.328;103.810;2023-04-01T04:33:30;31.40;99.90
31575;DHT22;18182;1.328;103.810;2023-04-01T04:35:57;31.30;99.90
31575;DHT22;18182;1.328;103.810;2023-04-01T04:38:24;31.20;99.90
31575;DHT22;18182;1.328;103.810;2023-04-01T04:40:50;31.20;99.90
31575;DHT22;18182;1.328;103.810;2023-04-01T04:43:17;31.20;99.90
31575;DHT22;18182;1.328;103.810;2023-04-01T04:45:43;31.20;99.90
31575;DHT22;18182;1.328;103.810;2023-04-01T04:48:14;31.10;99.90
31575;DHT22;18182;1.328;103.810;2023-04-01T04:50:44;31.00;99.90
31575;DHT22;18182;1.328;103.810;2023-04-01T04:53:13;30.90;99.90
31575;DHT22;18182;1.328;103.810;2023-04-01T04:55:43;31.00;99.90
31575;DHT22;18182;1.328;103.810;2023-04-01T04:58:09;31.20;99.90
31575;DHT22;18182;1.328;103.810;2023-04-01T05:00:35;31.20;99.90
31575;DHT22;18182;1.328;103.810;2023-04-01T05:03:02;31.30;99.90
31575;DHT22;18182;1.328;103.810;2023-04-01T05:05:28;31.40;99.90
31575;DHT22;18182;1.328;103.810;2023-04-01T05:07:54;31.40;99.90
31575;DHT22;18182;1.328;103.810;2023-04-01T05:10:20;31.40;99.90
31575;DHT22;18182;1.328;103.810;2023-04-01T05:12:46;31.50;99.90
31575;DHT22;18182;1.328;103.810;2023-04-01T05:15:12;31.50;99.90
31575;DHT22;18182;1.328;103.810;2023-04-01T05:17:39;31.50;99.90
31575;DHT22;18182;1.328;103.810;2023-04-01T05:20:05;31.50;99.90
31575;DHT22;18182;1.328;103.810;2023-04-01T05:22:32;31.50;99.90
31575;DHT22;18182;1.328;103.810;2023-04-01T05:24:58;31.50;99.90
31575;DHT22;18182;1.328;103.810;2023-04-01T05:27:24;31.50;99.90
31575;DHT22;18182;1.328;103.810;2023-04-01T05:29:51;31.50;99.90
31575;DHT22;18182;1.328;103.810;2023-04-01T05:32:17;31.50;99.90
31575;DHT22;18182;1.328;103.810;2023-04-01T05:34:43;31.50;99.90
31575;DHT22;18182;1.328;103.810;2023-04-01T05:37:09;31.50;99.90
31575;DHT22;18182;1.328;103.810;2023-04-01T05:39:38;31.50;99.90
31575;DHT22;18182;1.328;103.810;2023-04-01T05:42:07;31.60;99.90
31575;DHT22;18182;1.328;103.810;2023-04-01T05:44:34;31.60;99.90
31575;DHT22;18182;1.328;103.810;2023-04-01T05:47:01;31.60;99.90
31575;DHT22;18182;1.328;103.810;2023-04-01T05:49:27;31.70;99.90
31575;DHT22;18182;1.328;103.810;2023-04-01T05:51:53;31.70;99.90
31575;DHT22;18182;1.328;103.810;2023-04-01T05:54:19;31.60;99.90
31575;DHT22;18182;1.328;103.810;2023-04-01T05:56:45;31.60;99.90
31575;DHT22;18182;1.328;103.810;2023-04-01T05:59:11;31.60;99.90
31575;DHT22;18182;1.328;103.810;2023-04-01T06:01:38;31.60;99.90
31575;DHT22;18182;1.328;103.810;2023-04-01T06:04:04;31.60;99.90
31575;DHT22;18182;1.328;103.810;2023-04-01T06:06:30;31.50;99.90
31575;DHT22;18182;1.328;103.810;2023-04-01T06:09:16;31.40;99.90
31575;DHT22;18182;1.328;103.810;2023-04-01T06:19:16;31.40;99.90
31575;DHT22;18182;1.328;103.810;2023-04-01T06:24:31;31.50;99.90
31575;DHT22;18182;1.328;103.810;2023-04-01T06:35:15;31.50;99.90
31575;DHT22;18182;1.328;103.810;2023-04-01T06:37:57;31.60;99.90
31575;DHT22;18182;1.328;103.810;2023-04-01T06:53:45;31.50;99.90
31575;DHT22;18182;1.328;103.810;2023-04-01T06:56:12;31.50;99.90
31575;DHT22;18182;1.328;103.810;2023-04-01T06:58:45;31.50;99.90
31575;DHT22;18182;1.328;103.810;2023-04-01T07:04:20;31.50;99.90
31575;DHT22;18182;1.328;103.810;2023-04-01T07:09:22;31.50;99.90
31575;DHT22;18182;1.328;103.810;2023-04-01T07:11:50;31.40;99.90
31575;DHT22;18182;1.328;103.810;2023-04-01T07:14:24;31.40;99.90
31575;DHT22;18182;1.328;103.810;2023-04-01T07:16:53;31.40;99.90
31575;DHT22;18182;1.328;103.810;2023-04-01T07:19:25;31.30;99.90
31575;DHT22;18182;1.328;103.810;2023-04-01T07:22:36;31.20;99.90
31575;DHT22;18182;1.328;103.810;2023-04-01T07:24:44;31.20;99.90
31575;DHT22;18182;1.328;103.810;2023-04-01T07:27:11;31.20;99.90
31575;DHT22;18182;1.328;103.810;2023-04-01T07:29:37;31.20;99.90
31575;DHT22;18182;1.328;103.810;2023-04-01T07:37:15;31.20;99.90
31575;DHT22;18182;1.328;103.810;2023-04-01T07:50:21;31.20;99.90
31575;DHT22;18182;1.328;103.810;2023-04-01T08:06:40;30.90;99.90
31575;DHT22;18182;1.328;103.810;2023-04-01T08:21:44;30.90;99.90
31575;DHT22;18182;1.328;103.810;2023-04-01T08:24:16;30.90;99.90
31575;DHT22;18182;1.328;103.810;2023-04-01T08:26:45;30.80;99.90
31575;DHT22;18182;1.328;103.810;2023-04-01T08:29:14;30.80;99.90
31575;DHT22;18182;1.328;103.810;2023-04-01T08:34:13;30.80;99.90
31575;DHT22;18182;1.328;103.810;2023-04-01T08:36:43;30.70;99.90
31575;DHT22;18182;1.328;103.810;2023-04-01T08:39:12;30.70;99.90
31575;DHT22;18182;1.328;103.810;2023-04-01T08:44:11;30.60;99.90
31575;DHT22;18182;1.328;103.810;2023-04-01T08:51:48;30.60;99.90
31575;DHT22;18182;1.328;103.810;2023-04-01T08:54:23;30.60;99.90
31575;DHT22;18182;1.328;103.810;2023-04-01T09:04:59;30.20;99.90
31575;DHT22;18182;1.328;103.810;2023-04-01T09:07:40;30.10;99.90
31575;DHT22;18182;1.328;103.810;2023-04-01T09:10:16;30.00;99.90
31575;DHT22;18182;1.328;103.810;2023-04-01T09:23:20;29.40;99.90
31575;DHT22;18182;1.328;103.810;2023-04-01T09:38:40;29.30;99.90
31575;DHT22;18182;1.328;103.810;2023-04-01T09:41:32;29.30;99.90
31575;DHT22;18182;1.328;103.810;2023-04-01T09:44:00;29.20;99.90
31575;DHT22;18182;1.328;103.810;2023-04-01T09:46:35;29.20;99.90
31575;DHT22;18182;1.328;103.810;2023-04-01T09:53:59;29.20;99.90
31575;DHT22;18182;1.328;103.810;2023-04-01T09:59:08;29.10;99.90
31575;DHT22;18182;1.328;103.810;2023-04-01T10:07:03;29.10;99.90
31575;DHT22;18182;1.328;103.810;2023-04-01T10:17:20;29.20;99.90
31575;DHT22;18182;1.328;103.810;2023-04-01T10:30:29;29.00;99.90
31575;DHT22;18182;1.328;103.810;2023-04-01T10:56:42;28.90;99.90
31575;DHT22;18182;1.328;103.810;2023-04-01T11:24:43;28.10;99.90
31575;DHT22;18182;1.328;103.810;2023-04-01T11:38:04;27.60;99.90
31575;DHT22;18182;1.328;103.810;2023-04-01T11:40:35;27.60;99.90
31575;DHT22;18182;1.328;103.810;2023-04-01T11:53:23;27.80;99.90
31575;DHT22;18182;1.328;103.810;2023-04-01T12:11:23;28.30;99.90
31575;DHT22;18182;1.328;103.810;2023-04-01T12:21:56;28.60;99.90
31575;DHT22;18182;1.328;103.810;2023-04-01T12:34:58;28.80;99.90
31575;DHT22;18182;1.328;103.810;2023-04-01T12:50:20;28.90;99.90
31575;DHT22;18182;1.328;103.810;2023-04-01T12:52:56;28.80;99.90
31575;DHT22;18182;1.328;103.810;2023-04-01T12:55:38;28.80;99.90
31575;DHT22;18182;1.328;103.810;2023-04-01T13:00:56;28.90;99.90
31575;DHT22;18182;1.328;103.810;2023-04-01T13:11:02;28.90;99.90
31575;DHT22;18182;1.328;103.810;2023-04-01T13:13:54;28.90;99.90
31575;DHT22;18182;1.328;103.810;2023-04-01T13:16:27;28.90;99.90
31575;DHT22;18182;1.328;103.810;2023-04-01T13:19:01;28.90;99.90
31575;DHT22;18182;1.328;103.810;2023-04-01T13:21:43;28.90;99.90
31575;DHT22;18182;1.328;103.810;2023-04-01T13:30:01;28.80;99.90
31575;DHT22;18182;1.328;103.810;2023-04-01T13:50:44;28.30;99.90
31575;DHT22;18182;1.328;103.810;2023-04-01T14:03:25;28.20;99.90
31575;DHT22;18182;1.328;103.810;2023-04-01T14:14:04;28.20;99.90
31575;DHT22;18182;1.328;103.810;2023-04-01T14:16:39;28.20;99.90
31575;DHT22;18182;1.328;103.810;2023-04-01T14:24:32;28.20;99.90
31575;DHT22;18182;1.328;103.810;2023-04-01T14:27:17;28.30;99.90
31575;DHT22;18182;1.328;103.810;2023-04-01T14:29:59;28.30;99.90
31575;DHT22;18182;1.328;103.810;2023-04-01T14:35:34;28.20;99.90
31575;DHT22;18182;1.328;103.810;2023-04-01T14:38:10;28.20;99.90
31575;DHT22;18182;1.328;103.810;2023-04-01T14:40:47;28.20;99.90
31575;DHT22;18182;1.328;103.810;2023-04-01T14:48:32;28.20;99.90
31575;DHT22;18182;1.328;103.810;2023-04-01T14:51:03;28.10;99.90
31575;DHT22;18182;1.328;103.810;2023-04-01T14:53:35;28.20;99.90
31575;DHT22;18182;1.328;103.810;2023-04-01T14:56:04;28.20;99.90
31575;DHT22;18182;1.328;103.810;2023-04-01T15:04:10;28.30;99.90
31575;DHT22;18182;1.328;103.810;2023-04-01T15:07:02;28.20;99.90
31575;DHT22;18182;1.328;103.810;2023-04-01T15:09:38;28.20;99.90
31575;DHT22;18182;1.328;103.810;2023-04-01T15:32:19;28.30;99.90
31575;DHT22;18182;1.328;103.810;2023-04-01T15:37:29;28.20;99.90
31575;DHT22;18182;1.328;103.810;2023-04-01T15:42:27;28.20;99.90
31575;DHT22;18182;1.328;103.810;2023-04-01T15:45:00;28.20;99.90
31575;DHT22;18182;1.328;103.810;2023-04-01T15:47:39;28.30;99.90
31575;DHT22;18182;1.328;103.810;2023-04-01T16:00:53;28.20;99.90
31575;DHT22;18182;1.328;103.810;2023-04-01T16:03:28;28.20;99.90
31575;DHT22;18182;1.328;103.810;2023-04-01T16:08:45;28.20;99.90
31575;DHT22;18182;1.328;103.810;2023-04-01T16:13:59;28.30;99.90
31575;DHT22;18182;1.328;103.810;2023-04-01T16:16:36;28.30;99.90
31575;DHT22;18182;1.328;103.810;2023-04-01T16:24:15;28.20;99.90
31575;DHT22;18182;1.328;103.810;2023-04-01T16:26:47;28.30;99.90
31575;DHT22;18182;1.328;103.810;2023-04-01T16:31:48;28.20;99.90
31575;DHT22;18182;1.328;103.810;2023-04-01T16:36:54;28.20;99.90
31575;DHT22;18182;1.328;103.810;2023-04-01T16:42:16;28.20;99.90
31575;DHT22;18182;1.328;103.810;2023-04-01T16:44:53;28.20;99.90
31575;DHT22;18182;1.328;103.810;2023-04-01T16:47:22;28.20;99.90
31575;DHT22;18182;1.328;103.810;2023-04-01T16:50:39;28.10;99.90
31575;DHT22;18182;1.328;103.810;2023-04-01T16:55:42;28.20;99.90
31575;DHT22;18182;1.328;103.810;2023-04-01T16:58:09;28.20;99.90
31575;DHT22;18182;1.328;103.810;2023-04-01T17:00:48;28.20;99.90
31575;DHT22;18182;1.328;103.810;2023-04-01T17:03:32;28.20;99.90
31575;DHT22;18182;1.328;103.810;2023-04-01T17:06:13;28.20;99.90
31575;DHT22;18182;1.328;103.810;2023-04-01T17:14:27;28.10;99.90
31575;DHT22;18182;1.328;103.810;2023-04-01T17:27:23;28.10;99.90
31575;DHT22;18182;1.328;103.810;2023-04-01T17:35:27;28.10;99.90
31575;DHT22;18182;1.328;103.810;2023-04-01T17:38:18;28.10;99.90
31575;DHT22;18182;1.328;103.810;2023-04-01T17:43:33;28.10;99.90
31575;DHT22;18182;1.328;103.810;2023-04-01T17:46:02;28.20;99.90
31575;DHT22;18182;1.328;103.810;2023-04-01T17:48:52;28.10;99.90
31575;DHT22;18182;1.328;103.810;2023-04-01T17:54:10;28.20;99.90
31575;DHT22;18182;1.328;103.810;2023-04-01T18:01:39;28.20;99.90
31575;DHT22;18182;1.328;103.810;2023-04-01T18:12:24;28.10;99.90
31575;DHT22;18182;1.328;103.810;2023-04-01T18:20:11;28.10;99.90
31575;DHT22;18182;1.328;103.810;2023-04-01T18:22:46;28.20;99.90
31575;DHT22;18182;1.328;103.810;2023-04-01T18:30:39;28.20;99.90
31575;DHT22;18182;1.328;103.810;2023-04-01T18:33:21;28.20;99.90
31575;DHT22;18182;1.328;103.810;2023-04-01T18:38:16;28.10;99.90
31575;DHT22;18182;1.328;103.810;2023-04-01T18:49:13;28.20;99.90
31575;DHT22;18182;1.328;103.810;2023-04-01T18:51:54;28.20;99.90
31575;DHT22;18182;1.328;103.810;2023-04-01T18:57:14;28.10;99.90
31575;DHT22;18182;1.328;103.810;2023-04-01T19:09:55;28.10;99.90
31575;DHT22;18182;1.328;103.810;2023-04-01T19:17:41;28.20;99.90
31575;DHT22;18182;1.328;103.810;2023-04-01T19:20:13;28.10;99.90
31575;DHT22;18182;1.328;103.810;2023-04-01T19:22:45;28.10;99.90
31575;DHT22;18182;1.328;103.810;2023-04-01T19:38:43;28.20;99.90
31575;DHT22;18182;1.328;103.810;2023-04-01T19:46:36;28.10;99.90
31575;DHT22;18182;1.328;103.810;2023-04-01T19:54:12;28.10;99.90
31575;DHT22;18182;1.328;103.810;2023-04-01T19:56:52;28.00;99.90
31575;DHT22;18182;1.328;103.810;2023-04-01T19:59:29;28.10;99.90
31575;DHT22;18182;1.328;103.810;2023-04-01T20:04:31;28.10;99.90
31575;DHT22;18182;1.328;103.810;2023-04-01T20:14:45;28.00;99.90
31575;DHT22;18182;1.328;103.810;2023-04-01T20:19:43;28.10;99.90
31575;DHT22;18182;1.328;103.810;2023-04-01T20:22:25;28.00;99.90
31575;DHT22;18182;1.328;103.810;2023-04-01T20:24:56;28.00;99.90
31575;DHT22;18182;1.328;103.810;2023-04-01T20:27:25;28.00;99.90
31575;DHT22;18182;1.328;103.810;2023-04-01T20:32:50;28.00;99.90
31575;DHT22;18182;1.328;103.810;2023-04-01T20:35:25;28.00;99.90
31575;DHT22;18182;1.328;103.810;2023-04-01T20:45:42;28.10;99.90
31575;DHT22;18182;1.328;103.810;2023-04-01T20:51:15;28.00;99.90
31575;DHT22;18182;1.328;103.810;2023-04-01T20:58:43;28.00;99.90
31575;DHT22;18182;1.328;103.810;2023-04-01T21:17:11;28.10;99.90
31575;DHT22;18182;1.328;103.810;2023-04-01T21:19:35;28.00;99.90
31575;DHT22;18182;1.328;103.810;2023-04-01T21:24:41;28.00;99.90
31575;DHT22;18182;1.328;103.810;2023-04-01T21:30:04;28.00;99.90
31575;DHT22;18182;1.328;103.810;2023-04-01T21:42:57;28.00;99.90
31575;DHT22;18182;1.328;103.810;2023-04-01T21:48:01;28.00;99.90
31575;DHT22;18182;1.328;103.810;2023-04-01T21:50:39;28.00;99.90
31575;DHT22;18182;1.328;103.810;2023-04-01T21:55:50;28.00;99.90
31575;DHT22;18182;1.328;103.810;2023-04-01T22:06:07;28.10;99.90
31575;DHT22;18182;1.328;103.810;2023-04-01T22:08:44;28.10;99.90
31575;DHT22;18182;1.328;103.810;2023-04-01T22:11:34;28.10;99.90
31575;DHT22;18182;1.328;103.810;2023-04-01T22:14:13;28.10;99.90
31575;DHT22;18182;1.328;103.810;2023-04-01T22:17:00;28.10;99.90
31575;DHT22;18182;1.328;103.810;2023-04-01T22:19:38;28.00;99.90
31575;DHT22;18182;1.328;103.810;2023-04-01T22:22:27;28.00;99.90
31575;DHT22;18182;1.328;103.810;2023-04-01T22:25:03;28.00;99.90
31575;DHT22;18182;1.328;103.810;2023-04-01T22:32:40;28.10;99.90
31575;DHT22;18182;1.328;103.810;2023-04-01T22:37:58;28.10;99.90
31575;DHT22;18182;1.328;103.810;2023-04-01T22:40:38;28.10;99.90
31575;DHT22;18182;1.328;103.810;2023-04-01T22:43:08;28.10;99.90
31575;DHT22;18182;1.328;103.810;2023-04-01T22:45:44;28.10;99.90
31575;DHT22;18182;1.328;103.810;2023-04-01T22:53:18;28.10;99.90
31575;DHT22;18182;1.328;103.810;2023-04-01T22:55:49;28.10;99.90
31575;DHT22;18182;1.328;103.810;2023-04-01T22:58:21;28.10;99.90
31575;DHT22;18182;1.328;103.810;2023-04-01T23:00:56;28.10;99.90
31575;DHT22;18182;1.328;103.810;2023-04-01T23:03:38;28.10;99.90
31575;DHT22;18182;1.328;103.810;2023-04-01T23:06:06;28.10;99.90
31575;DHT22;18182;1.328;103.810;2023-04-01T23:11:08;28.00;99.90
31575;DHT22;18182;1.328;103.810;2023-04-01T23:13:43;27.90;99.90
31575;DHT22;18182;1.328;103.810;2023-04-01T23:16:13;27.90;99.90
31575;DHT22;18182;1.328;103.810;2023-04-01T23:18:45;27.90;99.90
31575;DHT22;18182;1.328;103.810;2023-04-01T23:23:58;27.90;99.90
31575;DHT22;18182;1.328;103.810;2023-04-01T23:29:14;27.80;99.90
31575;DHT22;18182;1.328;103.810;2023-04-01T23:31:42;27.90;99.90
31575;DHT22;18182;1.328;103.810;2023-04-01T23:36:41;27.90;99.90
31575;DHT22;18182;1.328;103.810;2023-04-01T23:39:24;27.90;99.90
31575;DHT22;18182;1.328;103.810;2023-04-01T23:41:52;28.00;99.90
31575;DHT22;18182;1.328;103.810;2023-04-01T23:44:18;28.00;99.90
31575;DHT22;18182;1.328;103.810;2023-04-01T23:46:46;28.00;99.90
31575;DHT22;18182;1.328;103.810;2023-04-01T23:49:35;28.10;99.90
31575;DHT22;18182;1.328;103.810;2023-04-01T23:52:11;28.10;99.90
31575;DHT22;18182;1.328;103.810;2023-04-01T23:54:43;28.10;99.90
31575;DHT22;18182;1.328;103.810;2023-04-01T23:57:18;28.10;99.90
31575;DHT22;18182;1.328;103.810;2023-04-01T23:59:58;28.20;99.90
